sensor_id;sensor_type;location;lat;lon;timestamp;temperature;humidity
9107;DHT22;4589;48.690;8.952;2023-07-22T00:09:10;10.80;99.90
9107;DHT22;4589;48.690;8.952;2023-07-22T00:11:35;10.80;99.90
9107;DHT22;4589;48.690;8.952;2023-07-22T00:14:01;10.80;99.90
9107;DHT22;4589;48.690;8.952;2023-07-22T00:16:27;10.90;99.90
9107;DHT22;4589;48.690;8.952;2023-07-22T00:23:46;11.20;99.90
9107;DHT22;4589;48.690;8.952;2023-07-22T00:26:12;11.20;99.90
9107;DHT22;4589;48.690;8.952;2023-07-22T00:28:37;11.20;99.90
9107;DHT22;4589;48.690;8.952;2023-07-22T00:40:47;11.20;99.90
9107;DHT22;4589;48.690;8.952;2023-07-22T00:43:13;11.20;99.90
9107;DHT22;4589;48.690;8.952;2023-07-22T00:45:38;11.00;99.90
9107;DHT22;4589;48.690;8.952;2023-07-22T00:48:05;11.00;99.90
9107;DHT22;4589;48.690;8.952;2023-07-22T00:50:32;11.00;99.90
9107;DHT22;4589;48.690;8.952;2023-07-22T00:52:58;11.00;99.90
9107;DHT22;4589;48.690;8.952;2023-07-22T00:55:24;11.00;99.90
9107;DHT22;4589;48.690;8.952;2023-07-22T01:00:16;11.00;99.90
9107;DHT22;4589;48.690;8.952;2023-07-22T01:02:43;11.10;99.90
9107;DHT22;4589;48.690;8.952;2023-07-22T01:05:10;11.00;99.90
9107;DHT22;4589;48.690;8.952;2023-07-22T01:07:36;11.00;99.90
9107;DHT22;4589;48.690;8.952;2023-07-22T01:10:04;12.50;99.90
9107;DHT22;4589;48.690;8.952;2023-07-22T01:12:31;10.90;99.90
9107;DHT22;4589;48.690;8.952;2023-07-22T01:17:22;11.00;99.90
9107;DHT22;4589;48.690;8.952;2023-07-22T01:19:48;11.00;99.90
9107;DHT22;4589;48.690;8.952;2023-07-22T01:22:16;11.00;99.90
9107;DHT22;4589;48.690;8.952;2023-07-22T01:24:42;11.00;99.90
9107;DHT22;4589;48.690;8.952;2023-07-22T01:27:08;7.80;99.90
9107;DHT22;4589;48.690;8.952;2023-07-22T01:29:35;11.00;99.90
9107;DHT22;4589;48.690;8.952;2023-07-22T01:32:01;11.10;99.90
9107;DHT22;4589;48.690;8.952;2023-07-22T01:34:26;11.10;99.90
9107;DHT22;4589;48.690;8.952;2023-07-22T01:36:52;11.10;99.90
9107;DHT22;4589;48.690;8.952;2023-07-22T01:39:19;11.10;99.90
9107;DHT22;4589;48.690;8.952;2023-07-22T01:41:45;11.10;99.90
9107;DHT22;4589;48.690;8.952;2023-07-22T01:44:11;11.10;99.90
9107;DHT22;4589;48.690;8.952;2023-07-22T01:46:37;11.10;99.90
9107;DHT22;4589;48.690;8.952;2023-07-22T01:49:05;11.00;99.90
9107;DHT22;4589;48.690;8.952;2023-07-22T01:51:31;11.10;99.90
9107;DHT22;4589;48.690;8.952;2023-07-22T01:53:57;11.10;99.90
9107;DHT22;4589;48.690;8.952;2023-07-22T01:56:23;11.10;99.90
9107;DHT22;4589;48.690;8.952;2023-07-22T02:11:07;11.00;99.90
9107;DHT22;4589;48.690;8.952;2023-07-22T02:13:35;10.90;99.90
9107;DHT22;4589;48.690;8.952;2023-07-22T02:16:01;10.90;99.90
9107;DHT22;4589;48.690;8.952;2023-07-22T02:18:27;10.70;99.90
9107;DHT22;4589;48.690;8.952;2023-07-22T02:20:53;10.70;99.90
9107;DHT22;4589;48.690;8.952;2023-07-22T02:23:19;10.70;99.90
9107;DHT22;4589;48.690;8.952;2023-07-22T02:25:48;10.60;99.90
9107;DHT22;4589;48.690;8.952;2023-07-22T02:28:14;10.50;99.90
9107;DHT22;4589;48.690;8.952;2023-07-22T02:30:40;10.40;99.90
9107;DHT22;4589;48.690;8.952;2023-07-22T02:33:08;10.40;99.90
9107;DHT22;4589;48.690;8.952;2023-07-22T02:35:33;10.30;99.90
9107;DHT22;4589;48.690;8.952;2023-07-22T02:37:59;10.30;99.90
9107;DHT22;4589;48.690;8.952;2023-07-22T02:47:42;10.60;99.90
9107;DHT22;4589;48.690;8.952;2023-07-22T02:50:08;10.50;99.90
9107;DHT22;4589;48.690;8.952;2023-07-22T02:55:13;10.40;99.90
9107;DHT22;4589;48.690;8.952;2023-07-22T02:57:39;10.30;99.90
9107;DHT22;4589;48.690;8.952;2023-07-22T03:00:06;10.20;99.90
9107;DHT22;4589;48.690;8.952;2023-07-22T03:02:34;10.20;99.90
9107;DHT22;4589;48.690;8.952;2023-07-22T03:07:25;10.00;99.90
9107;DHT22;4589;48.690;8.952;2023-07-22T03:09:53;10.10;99.90
9107;DHT22;4589;48.690;8.952;2023-07-22T03:12:18;10.10;99.90
9107;DHT22;4589;48.690;8.952;2023-07-22T03:14:44;10.20;99.90
9107;DHT22;4589;48.690;8.952;2023-07-22T03:17:10;10.30;99.90
9107;DHT22;4589;48.690;8.952;2023-07-22T03:19:37;10.30;99.90
9107;DHT22;4589;48.690;8.952;2023-07-22T03:22:03;10.30;99.90
9107;DHT22;4589;48.690;8.952;2023-07-22T03:31:49;10.30;99.90
9107;DHT22;4589;48.690;8.952;2023-07-22T03:39:07;10.10;99.90
9107;DHT22;4589;48.690;8.952;2023-07-22T03:46:25;10.10;99.90
9107;DHT22;4589;48.690;8.952;2023-07-22T03:48:51;10.00;99.90
9107;DHT22;4589;48.690;8.952;2023-07-22T03:51:17;10.00;99.90
9107;DHT22;4589;48.690;8.952;2023-07-22T03:53:42;9.90;99.90
9107;DHT22;4589;48.690;8.952;2023-07-22T03:58:34;9.90;99.90
9107;DHT22;4589;48.690;8.952;2023-07-22T04:01:00;10.00;99.90
9107;DHT22;4589;48.690;8.952;2023-07-22T04:03:25;10.10;99.90
9107;DHT22;4589;48.690;8.952;2023-07-22T04:05:55;10.10;99.90
9107;DHT22;4589;48.690;8.952;2023-07-22T04:10:53;10.20;99.90
9107;DHT22;4589;48.690;8.952;2023-07-22T04:13:19;10.20;99.90
9107;DHT22;4589;48.690;8.952;2023-07-22T04:18:10;10.20;99.90
9107;DHT22;4589;48.690;8.952;2023-07-22T04:20:36;10.20;99.90
9107;DHT22;4589;48.690;8.952;2023-07-22T04:23:02;10.20;99.90
9107;DHT22;4589;48.690;8.952;2023-07-22T04:25:27;10.20;99.90
9107;DHT22;4589;48.690;8.952;2023-07-22T04:27:53;10.30;99.90
9107;DHT22;4589;48.690;8.952;2023-07-22T04:32:49;10.50;99.90
9107;DHT22;4589;48.690;8.952;2023-07-22T04:35:15;10.40;99.90
9107;DHT22;4589;48.690;8.952;2023-07-22T04:37:45;10.50;99.90
9107;DHT22;4589;48.690;8.952;2023-07-22T04:40:11;10.50;99.90
9107;DHT22;4589;48.690;8.952;2023-07-22T04:42:44;10.50;99.90
9107;DHT22;4589;48.690;8.952;2023-07-22T04:45:10;10.60;99.90
9107;DHT22;4589;48.690;8.952;2023-07-22T04:47:39;10.60;99.90
9107;DHT22;4589;48.690;8.952;2023-07-22T04:50:05;10.60;99.90
9107;DHT22;4589;48.690;8.952;2023-07-22T04:52:35;10.60;99.90
9107;DHT22;4589;48.690;8.952;2023-07-22T04:55:00;10.70;99.90
9107;DHT22;4589;48.690;8.952;2023-07-22T04:57:27;10.70;99.90
9107;DHT22;4589;48.690;8.952;2023-07-22T05:04:45;11.10;99.90
9107;DHT22;4589;48.690;8.952;2023-07-22T05:07:10;11.20;99.90
9107;DHT22;4589;48.690;8.952;2023-07-22T05:09:36;11.30;99.90
9107;DHT22;4589;48.690;8.952;2023-07-22T05:12:02;11.40;99.90
9107;DHT22;4589;48.690;8.952;2023-07-22T05:14:28;11.50;99.90
9107;DHT22;4589;48.690;8.952;2023-07-22T05:16:53;11.60;99.90
9107;DHT22;4589;48.690;8.952;2023-07-22T05:19:19;11.70;99.90
9107;DHT22;4589;48.690;8.952;2023-07-22T05:21:46;11.80;99.90
9107;DHT22;4589;48.690;8.952;2023-07-22T05:24:11;12.00;99.90
9107;DHT22;4589;48.690;8.952;2023-07-22T05:26:37;12.10;99.90
9107;DHT22;4589;48.690;8.952;2023-07-22T05:33:54;12.80;99.90
9107;DHT22;4589;48.690;8.952;2023-07-22T05:36:20;13.20;99.90
9107;DHT22;4589;48.690;8.952;2023-07-22T05:38:46;13.70;99.90
9107;DHT22;4589;48.690;8.952;2023-07-22T05:41:11;14.30;99.90
9107;DHT22;4589;48.690;8.952;2023-07-22T05:48:29;15.60;99.90
9107;DHT22;4589;48.690;8.952;2023-07-22T05:50:54;16.10;99.90
9107;DHT22;4589;48.690;8.952;2023-07-22T05:53:20;16.40;99.90
9107;DHT22;4589;48.690;8.952;2023-07-22T05:55:46;16.70;99.90
9107;DHT22;4589;48.690;8.952;2023-07-22T05:58:18;17.20;99.90
9107;DHT22;4589;48.690;8.952;2023-07-22T06:00:44;17.40;99.90
9107;DHT22;4589;48.690;8.952;2023-07-22T06:03:09;17.80;99.90
9107;DHT22;4589;48.690;8.952;2023-07-22T06:05:35;18.00;99.90
9107;DHT22;4589;48.690;8.952;2023-07-22T06:08:00;18.30;99.90
9107;DHT22;4589;48.690;8.952;2023-07-22T06:12:52;19.20;99.90
9107;DHT22;4589;48.690;8.952;2023-07-22T06:15:18;19.40;99.90
9107;DHT22;4589;48.690;8.952;2023-07-22T06:17:43;19.70;99.90
9107;DHT22;4589;48.690;8.952;2023-07-22T06:20:10;19.70;99.90
9107;DHT22;4589;48.690;8.952;2023-07-22T06:22:35;19.90;99.90
9107;DHT22;4589;48.690;8.952;2023-07-22T06:25:01;20.50;99.90
9107;DHT22;4589;48.690;8.952;2023-07-22T06:27:26;20.60;99.90
9107;DHT22;4589;48.690;8.952;2023-07-22T06:29:52;20.90;99.90
9107;DHT22;4589;48.690;8.952;2023-07-22T06:32:17;21.10;99.90
9107;DHT22;4589;48.690;8.952;2023-07-22T06:34:43;21.20;99.90
9107;DHT22;4589;48.690;8.952;2023-07-22T06:37:09;21.30;99.90
9107;DHT22;4589;48.690;8.952;2023-07-22T06:39:34;21.30;99.90
9107;DHT22;4589;48.690;8.952;2023-07-22T06:42:00;21.50;99.90
9107;DHT22;4589;48.690;8.952;2023-07-22T06:44:25;21.90;99.90
9107;DHT22;4589;48.690;8.952;2023-07-22T06:46:51;22.00;99.90
9107;DHT22;4589;48.690;8.952;2023-07-22T06:49:17;22.20;99.90
9107;DHT22;4589;48.690;8.952;2023-07-22T06:51:42;22.20;99.90
9107;DHT22;4589;48.690;8.952;2023-07-22T06:54:08;22.30;99.90
9107;DHT22;4589;48.690;8.952;2023-07-22T06:56:33;22.70;99.90
9107;DHT22;4589;48.690;8.952;2023-07-22T06:58:59;22.60;99.90
9107;DHT22;4589;48.690;8.952;2023-07-22T07:06:16;22.90;99.90
9107;DHT22;4589;48.690;8.952;2023-07-22T07:08:42;23.30;99.90
9107;DHT22;4589;48.690;8.952;2023-07-22T07:11:08;23.20;99.90
9107;DHT22;4589;48.690;8.952;2023-07-22T07:13:33;23.30;99.90
9107;DHT22;4589;48.690;8.952;2023-07-22T07:16:19;23.40;99.90
9107;DHT22;4589;48.690;8.952;2023-07-22T07:18:45;23.60;99.90
9107;DHT22;4589;48.690;8.952;2023-07-22T07:26:02;23.80;99.90
9107;DHT22;4589;48.690;8.952;2023-07-22T07:28:28;24.50;99.90
9107;DHT22;4589;48.690;8.952;2023-07-22T07:33:19;24.70;99.90
9107;DHT22;4589;48.690;8.952;2023-07-22T07:35:48;24.70;99.90
9107;DHT22;4589;48.690;8.952;2023-07-22T07:38:14;25.00;99.90
9107;DHT22;4589;48.690;8.952;2023-07-22T07:40:39;25.20;99.90
9107;DHT22;4589;48.690;8.952;2023-07-22T07:43:05;25.30;99.90
9107;DHT22;4589;48.690;8.952;2023-07-22T07:45:30;25.60;99.90
9107;DHT22;4589;48.690;8.952;2023-07-22T07:52:48;26.20;99.00
9107;DHT22;4589;48.690;8.952;2023-07-22T07:55:14;26.60;99.90
9107;DHT22;4589;48.690;8.952;2023-07-22T07:57:39;26.90;98.00
9107;DHT22;4589;48.690;8.952;2023-07-22T08:00:05;28.10;95.90
9107;DHT22;4589;48.690;8.952;2023-07-22T08:05:00;28.60;93.10
9107;DHT22;4589;48.690;8.952;2023-07-22T08:07:25;29.20;92.50
9107;DHT22;4589;48.690;8.952;2023-07-22T08:12:18;29.30;91.90
9107;DHT22;4589;48.690;8.952;2023-07-22T08:19:37;30.70;90.60
9107;DHT22;4589;48.690;8.952;2023-07-22T08:22:03;30.90;91.60
9107;DHT22;4589;48.690;8.952;2023-07-22T08:31:46;30.80;87.30
9107;DHT22;4589;48.690;8.952;2023-07-22T08:34:12;30.70;86.90
9107;DHT22;4589;48.690;8.952;2023-07-22T08:36:37;30.30;86.30
9107;DHT22;4589;48.690;8.952;2023-07-22T08:41:29;30.70;87.80
9107;DHT22;4589;48.690;8.952;2023-07-22T08:43:56;29.40;77.90
9107;DHT22;4589;48.690;8.952;2023-07-22T08:46:28;28.60;89.00
9107;DHT22;4589;48.690;8.952;2023-07-22T08:48:56;27.60;83.70
9107;DHT22;4589;48.690;8.952;2023-07-22T08:51:24;28.10;90.00
9107;DHT22;4589;48.690;8.952;2023-07-22T08:53:50;28.20;85.60
9107;DHT22;4589;48.690;8.952;2023-07-22T08:56:16;28.10;88.80
9107;DHT22;4589;48.690;8.952;2023-07-22T08:58:42;28.00;89.40
9107;DHT22;4589;48.690;8.952;2023-07-22T09:01:09;27.40;82.10
9107;DHT22;4589;48.690;8.952;2023-07-22T09:03:35;26.80;90.90
9107;DHT22;4589;48.690;8.952;2023-07-22T09:06:04;26.00;90.30
9107;DHT22;4589;48.690;8.952;2023-07-22T09:08:30;26.00;90.20
9107;DHT22;4589;48.690;8.952;2023-07-22T09:13:22;26.30;89.20
9107;DHT22;4589;48.690;8.952;2023-07-22T09:15:48;26.90;90.40
9107;DHT22;4589;48.690;8.952;2023-07-22T09:25:34;26.60;85.00
9107;DHT22;4589;48.690;8.952;2023-07-22T09:28:00;26.90;91.30
9107;DHT22;4589;48.690;8.952;2023-07-22T09:30:28;26.20;89.00
9107;DHT22;4589;48.690;8.952;2023-07-22T09:32:56;26.70;90.80
9107;DHT22;4589;48.690;8.952;2023-07-22T09:35:23;28.00;86.90
9107;DHT22;4589;48.690;8.952;2023-07-22T09:37:49;28.20;88.80
9107;DHT22;4589;48.690;8.952;2023-07-22T09:42:45;27.30;81.40
9107;DHT22;4589;48.690;8.952;2023-07-22T09:45:10;27.00;85.80
9107;DHT22;4589;48.690;8.952;2023-07-22T09:47:44;26.80;89.70
9107;DHT22;4589;48.690;8.952;2023-07-22T09:50:20;27.80;90.60
9107;DHT22;4589;48.690;8.952;2023-07-22T09:55:20;26.80;91.60
9107;DHT22;4589;48.690;8.952;2023-07-22T09:57:48;26.50;81.70
9107;DHT22;4589;48.690;8.952;2023-07-22T10:00:16;26.20;86.50
9107;DHT22;4589;48.690;8.952;2023-07-22T10:02:43;25.80;86.40
9107;DHT22;4589;48.690;8.952;2023-07-22T10:05:14;26.40;89.10
9107;DHT22;4589;48.690;8.952;2023-07-22T10:07:43;26.60;81.10
9107;DHT22;4589;48.690;8.952;2023-07-22T10:10:11;26.80;87.70
9107;DHT22;4589;48.690;8.952;2023-07-22T10:12:39;26.40;91.30
9107;DHT22;4589;48.690;8.952;2023-07-22T10:15:05;26.20;86.90
9107;DHT22;4589;48.690;8.952;2023-07-22T10:19:58;25.80;88.50
9107;DHT22;4589;48.690;8.952;2023-07-22T10:22:24;25.60;90.10
9107;DHT22;4589;48.690;8.952;2023-07-22T10:24:50;25.70;90.10
9107;DHT22;4589;48.690;8.952;2023-07-22T10:29:45;29.30;90.80
9107;DHT22;4589;48.690;8.952;2023-07-22T10:32:11;30.10;87.50
9107;DHT22;4589;48.690;8.952;2023-07-22T10:34:37;30.60;82.80
9107;DHT22;4589;48.690;8.952;2023-07-22T10:39:29;30.40;77.10
9107;DHT22;4589;48.690;8.952;2023-07-22T10:42:02;29.50;84.00
9107;DHT22;4589;48.690;8.952;2023-07-22T10:44:31;29.10;80.50
9107;DHT22;4589;48.690;8.952;2023-07-22T10:46:58;28.60;78.20
9107;DHT22;4589;48.690;8.952;2023-07-22T10:51:51;27.60;80.90
9107;DHT22;4589;48.690;8.952;2023-07-22T10:54:32;26.90;86.50
9107;DHT22;4589;48.690;8.952;2023-07-22T10:57:03;26.30;82.90
9107;DHT22;4589;48.690;8.952;2023-07-22T10:59:32;25.50;85.90
9107;DHT22;4589;48.690;8.952;2023-07-22T11:11:54;29.10;77.30
9107;DHT22;4589;48.690;8.952;2023-07-22T11:14:24;29.60;79.10
9107;DHT22;4589;48.690;8.952;2023-07-22T11:16:50;29.80;79.50
9107;DHT22;4589;48.690;8.952;2023-07-22T11:19:18;29.40;75.90
9107;DHT22;4589;48.690;8.952;2023-07-22T11:21:45;30.00;83.10
9107;DHT22;4589;48.690;8.952;2023-07-22T11:24:11;30.00;73.30
9107;DHT22;4589;48.690;8.952;2023-07-22T11:26:37;30.80;75.80
9107;DHT22;4589;48.690;8.952;2023-07-22T11:29:04;30.30;69.40
9107;DHT22;4589;48.690;8.952;2023-07-22T11:31:35;30.10;69.30
9107;DHT22;4589;48.690;8.952;2023-07-22T11:34:02;30.50;69.80
9107;DHT22;4589;48.690;8.952;2023-07-22T11:36:28;30.60;75.20
9107;DHT22;4589;48.690;8.952;2023-07-22T11:41:20;31.00;78.50
9107;DHT22;4589;48.690;8.952;2023-07-22T11:46:11;32.20;71.10
9107;DHT22;4589;48.690;8.952;2023-07-22T11:58:26;29.30;69.90
9107;DHT22;4589;48.690;8.952;2023-07-22T12:01:06;29.50;69.90
9107;DHT22;4589;48.690;8.952;2023-07-22T12:03:33;30.70;68.80
9107;DHT22;4589;48.690;8.952;2023-07-22T12:06:06;31.00;67.90
9107;DHT22;4589;48.690;8.952;2023-07-22T12:08:32;30.90;67.90
9107;DHT22;4589;48.690;8.952;2023-07-22T12:10:59;31.60;69.10
9107;DHT22;4589;48.690;8.952;2023-07-22T12:13:24;31.30;68.10
9107;DHT22;4589;48.690;8.952;2023-07-22T12:16:01;31.30;66.70
9107;DHT22;4589;48.690;8.952;2023-07-22T12:18:26;31.90;65.50
9107;DHT22;4589;48.690;8.952;2023-07-22T12:20:52;31.90;64.50
9107;DHT22;4589;48.690;8.952;2023-07-22T12:23:18;31.00;63.10
9107;DHT22;4589;48.690;8.952;2023-07-22T12:25:44;30.90;63.50
9107;DHT22;4589;48.690;8.952;2023-07-22T12:28:09;29.10;66.10
9107;DHT22;4589;48.690;8.952;2023-07-22T12:30:36;28.50;70.20
9107;DHT22;4589;48.690;8.952;2023-07-22T12:33:02;29.40;69.80
9107;DHT22;4589;48.690;8.952;2023-07-22T12:35:28;30.20;68.00
9107;DHT22;4589;48.690;8.952;2023-07-22T12:40:20;30.60;64.50
9107;DHT22;4589;48.690;8.952;2023-07-22T12:42:46;29.80;65.50
9107;DHT22;4589;48.690;8.952;2023-07-22T12:45:13;28.80;67.60
9107;DHT22;4589;48.690;8.952;2023-07-22T12:47:38;27.90;70.60
9107;DHT22;4589;48.690;8.952;2023-07-22T12:50:05;27.70;69.90
9107;DHT22;4589;48.690;8.952;2023-07-22T12:52:31;26.80;70.40
9107;DHT22;4589;48.690;8.952;2023-07-22T12:57:23;27.40;74.90
9107;DHT22;4589;48.690;8.952;2023-07-22T13:04:40;28.50;68.30
9107;DHT22;4589;48.690;8.952;2023-07-22T13:07:06;27.70;69.00
9107;DHT22;4589;48.690;8.952;2023-07-22T13:09:31;27.40;72.00
9107;DHT22;4589;48.690;8.952;2023-07-22T13:14:23;27.10;73.30
9107;DHT22;4589;48.690;8.952;2023-07-22T13:21:40;27.20;72.80
9107;DHT22;4589;48.690;8.952;2023-07-22T13:24:06;27.00;71.90
9107;DHT22;4589;48.690;8.952;2023-07-22T13:31:23;27.10;74.40
9107;DHT22;4589;48.690;8.952;2023-07-22T13:36:15;27.50;75.90
9107;DHT22;4589;48.690;8.952;2023-07-22T13:38:40;27.30;74.00
9107;DHT22;4589;48.690;8.952;2023-07-22T13:43:32;27.50;74.10
9107;DHT22;4589;48.690;8.952;2023-07-22T13:48:23;27.60;74.30
9107;DHT22;4589;48.690;8.952;2023-07-22T13:55:41;27.70;72.90
9107;DHT22;4589;48.690;8.952;2023-07-22T14:00:34;27.50;75.70
9107;DHT22;4589;48.690;8.952;2023-07-22T14:20:04;27.00;70.40
9107;DHT22;4589;48.690;8.952;2023-07-22T14:27:22;26.40;72.70
9107;DHT22;4589;48.690;8.952;2023-07-22T14:29:47;26.20;74.20
9107;DHT22;4589;48.690;8.952;2023-07-22T14:32:13;25.70;74.90
9107;DHT22;4589;48.690;8.952;2023-07-22T14:34:41;25.90;76.30
9107;DHT22;4589;48.690;8.952;2023-07-22T14:37:07;26.10;77.00
9107;DHT22;4589;48.690;8.952;2023-07-22T14:39:32;26.10;73.00
9107;DHT22;4589;48.690;8.952;2023-07-22T14:41:58;26.20;71.70
9107;DHT22;4589;48.690;8.952;2023-07-22T14:44:24;26.10;71.60
9107;DHT22;4589;48.690;8.952;2023-07-22T14:46:49;26.30;74.10
9107;DHT22;4589;48.690;8.952;2023-07-22T14:54:07;25.90;73.40
9107;DHT22;4589;48.690;8.952;2023-07-22T15:06:18;25.50;75.60
9107;DHT22;4589;48.690;8.952;2023-07-22T15:08:43;25.30;73.30
9107;DHT22;4589;48.690;8.952;2023-07-22T15:13:35;25.70;75.20
9107;DHT22;4589;48.690;8.952;2023-07-22T15:20:52;26.00;72.00
9107;DHT22;4589;48.690;8.952;2023-07-22T15:25:44;25.70;73.90
9107;DHT22;4589;48.690;8.952;2023-07-22T15:28:09;25.60;73.10
9107;DHT22;4589;48.690;8.952;2023-07-22T15:35:27;25.60;76.50
9107;DHT22;4589;48.690;8.952;2023-07-22T15:37:52;25.60;74.70
9107;DHT22;4589;48.690;8.952;2023-07-22T15:40:21;25.50;74.40
9107;DHT22;4589;48.690;8.952;2023-07-22T15:47:38;25.50;74.10
9107;DHT22;4589;48.690;8.952;2023-07-22T15:50:04;25.40;74.50
9107;DHT22;4589;48.690;8.952;2023-07-22T16:02:14;25.80;74.20
9107;DHT22;4589;48.690;8.952;2023-07-22T16:04:40;25.80;75.00
9107;DHT22;4589;48.690;8.952;2023-07-22T16:07:08;25.70;74.40
9107;DHT22;4589;48.690;8.952;2023-07-22T16:09:33;25.90;74.60
9107;DHT22;4589;48.690;8.952;2023-07-22T16:12:01;26.00;74.50
9107;DHT22;4589;48.690;8.952;2023-07-22T16:14:27;26.00;74.70
9107;DHT22;4589;48.690;8.952;2023-07-22T16:19:19;26.10;74.60
9107;DHT22;4589;48.690;8.952;2023-07-22T16:21:44;26.00;73.10
9107;DHT22;4589;48.690;8.952;2023-07-22T16:24:10;25.90;74.50
9107;DHT22;4589;48.690;8.952;2023-07-22T16:36:21;25.50;75.00
9107;DHT22;4589;48.690;8.952;2023-07-22T16:38:47;25.50;74.70
9107;DHT22;4589;48.690;8.952;2023-07-22T16:41:13;25.40;75.30
9107;DHT22;4589;48.690;8.952;2023-07-22T16:46:05;25.30;76.60
9107;DHT22;4589;48.690;8.952;2023-07-22T16:50:58;25.20;75.70
9107;DHT22;4589;48.690;8.952;2023-07-22T16:55:49;24.80;75.90
9107;DHT22;4589;48.690;8.952;2023-07-22T16:58:16;24.60;75.70
9107;DHT22;4589;48.690;8.952;2023-07-22T17:00:41;24.60;77.10
9107;DHT22;4589;48.690;8.952;2023-07-22T17:07:59;24.50;76.40
9107;DHT22;4589;48.690;8.952;2023-07-22T17:10:26;24.40;77.00
9107;DHT22;4589;48.690;8.952;2023-07-22T17:12:52;24.30;76.10
9107;DHT22;4589;48.690;8.952;2023-07-22T17:20:11;23.90;77.20
9107;DHT22;4589;48.690;8.952;2023-07-22T17:22:37;23.80;77.70
9107;DHT22;4589;48.690;8.952;2023-07-22T17:25:03;23.80;76.60
9107;DHT22;4589;48.690;8.952;2023-07-22T17:37:12;23.20;78.70
9107;DHT22;4589;48.690;8.952;2023-07-22T17:39:38;23.20;78.30
9107;DHT22;4589;48.690;8.952;2023-07-22T17:44:29;23.20;78.70
9107;DHT22;4589;48.690;8.952;2023-07-22T17:46:55;23.20;79.20
9107;DHT22;4589;48.690;8.952;2023-07-22T17:49:20;23.10;80.70
9107;DHT22;4589;48.690;8.952;2023-07-22T17:51:46;23.00;79.40
9107;DHT22;4589;48.690;8.952;2023-07-22T18:03:55;22.60;80.20
9107;DHT22;4589;48.690;8.952;2023-07-22T18:06:21;22.60;81.00
9107;DHT22;4589;48.690;8.952;2023-07-22T18:08:48;22.50;81.70
9107;DHT22;4589;48.690;8.952;2023-07-22T18:11:13;22.50;82.10
9107;DHT22;4589;48.690;8.952;2023-07-22T18:13:39;22.40;82.50
9107;DHT22;4589;48.690;8.952;2023-07-22T18:23:22;22.00;81.80
9107;DHT22;4589;48.690;8.952;2023-07-22T18:25:48;21.90;82.60
9107;DHT22;4589;48.690;8.952;2023-07-22T18:28:13;21.80;83.40
9107;DHT22;4589;48.690;8.952;2023-07-22T18:30:42;21.70;82.60
9107;DHT22;4589;48.690;8.952;2023-07-22T18:33:08;21.60;83.20
9107;DHT22;4589;48.690;8.952;2023-07-22T18:40:26;21.30;85.50
9107;DHT22;4589;48.690;8.952;2023-07-22T18:42:52;21.20;85.80
9107;DHT22;4589;48.690;8.952;2023-07-22T18:52:35;20.80;87.10
9107;DHT22;4589;48.690;8.952;2023-07-22T18:55:01;20.70;87.80
9107;DHT22;4589;48.690;8.952;2023-07-22T18:57:26;20.60;86.80
9107;DHT22;4589;48.690;8.952;2023-07-22T19:09:36;20.20;87.40
9107;DHT22;4589;48.690;8.952;2023-07-22T19:12:01;20.00;87.90
9107;DHT22;4589;48.690;8.952;2023-07-22T19:14:27;19.90;89.60
9107;DHT22;4589;48.690;8.952;2023-07-22T19:16:54;19.70;90.20
9107;DHT22;4589;48.690;8.952;2023-07-22T19:33:59;19.00;92.20
9107;DHT22;4589;48.690;8.952;2023-07-22T19:36:25;18.90;92.00
9107;DHT22;4589;48.690;8.952;2023-07-22T19:38:50;18.80;92.60
9107;DHT22;4589;48.690;8.952;2023-07-22T19:41:16;18.70;92.50
9107;DHT22;4589;48.690;8.952;2023-07-22T19:43:44;18.70;92.20
9107;DHT22;4589;48.690;8.952;2023-07-22T19:46:12;18.60;93.00
9107;DHT22;4589;48.690;8.952;2023-07-22T19:48:38;18.40;92.80
9107;DHT22;4589;48.690;8.952;2023-07-22T19:51:06;18.40;92.50
9107;DHT22;4589;48.690;8.952;2023-07-22T19:53:32;18.30;92.80
9107;DHT22;4589;48.690;8.952;2023-07-22T19:56:02;18.20;92.80
9107;DHT22;4589;48.690;8.952;2023-07-22T19:58:28;18.20;92.80
9107;DHT22;4589;48.690;8.952;2023-07-22T20:00:55;18.10;92.90
9107;DHT22;4589;48.690;8.952;2023-07-22T20:15:35;17.80;94.10
9107;DHT22;4589;48.690;8.952;2023-07-22T20:25:19;17.40;94.90
9107;DHT22;4589;48.690;8.952;2023-07-22T20:27:45;17.40;95.10
9107;DHT22;4589;48.690;8.952;2023-07-22T20:44:53;17.40;95.90
9107;DHT22;4589;48.690;8.952;2023-07-22T20:47:19;17.40;95.90
9107;DHT22;4589;48.690;8.952;2023-07-22T20:49:45;17.40;95.80
9107;DHT22;4589;48.690;8.952;2023-07-22T20:57:02;17.50;95.10
9107;DHT22;4589;48.690;8.952;2023-07-22T20:59:28;17.50;95.20
9107;DHT22;4589;48.690;8.952;2023-07-22T21:04:19;17.40;96.00
9107;DHT22;4589;48.690;8.952;2023-07-22T21:18:55;17.00;96.30
9107;DHT22;4589;48.690;8.952;2023-07-22T21:26:13;16.90;97.00
9107;DHT22;4589;48.690;8.952;2023-07-22T21:28:39;16.80;97.10
9107;DHT22;4589;48.690;8.952;2023-07-22T21:31:05;16.60;97.40
9107;DHT22;4589;48.690;8.952;2023-07-22T21:35:56;16.50;97.80
9107;DHT22;4589;48.690;8.952;2023-07-22T21:38:22;16.30;98.10
9107;DHT22;4589;48.690;8.952;2023-07-22T21:40:51;16.20;98.60
9107;DHT22;4589;48.690;8.952;2023-07-22T21:45:42;16.10;98.60
9107;DHT22;4589;48.690;8.952;2023-07-22T21:48:08;16.10;98.40
9107;DHT22;4589;48.690;8.952;2023-07-22T21:50:34;16.00;98.80
9107;DHT22;4589;48.690;8.952;2023-07-22T21:53:06;15.90;98.60
9107;DHT22;4589;48.690;8.952;2023-07-22T21:55:32;15.80;99.00
9107;DHT22;4589;48.690;8.952;2023-07-22T21:58:00;15.80;98.60
9107;DHT22;4589;48.690;8.952;2023-07-22T22:05:18;15.60;98.80
9107;DHT22;4589;48.690;8.952;2023-07-22T22:12:36;15.50;99.20
9107;DHT22;4589;48.690;8.952;2023-07-22T22:24:47;15.60;99.90
9107;DHT22;4589;48.690;8.952;2023-07-22T22:29:38;15.40;99.90
9107;DHT22;4589;48.690;8.952;2023-07-22T22:32:04;15.30;99.90
9107;DHT22;4589;48.690;8.952;2023-07-22T22:34:30;15.30;99.90
9107;DHT22;4589;48.690;8.952;2023-07-22T22:46:39;15.10;99.90
9107;DHT22;4589;48.690;8.952;2023-07-22T22:49:05;15.10;99.90
9107;DHT22;4589;48.690;8.952;2023-07-22T22:51:30;15.10;99.90
9107;DHT22;4589;48.690;8.952;2023-07-22T22:58:48;15.10;99.90
9107;DHT22;4589;48.690;8.952;2023-07-22T23:01:15;15.20;99.90
9107;DHT22;4589;48.690;8.952;2023-07-22T23:06:13;15.00;99.90
9107;DHT22;4589;48.690;8.952;2023-07-22T23:11:13;15.30;99.90
9107;DHT22;4589;48.690;8.952;2023-07-22T23:13:46;15.30;99.90
9107;DHT22;4589;48.690;8.952;2023-07-22T23:16:13;15.40;99.90
9107;DHT22;4589;48.690;8.952;2023-07-22T23:18:44;15.30;99.90
9107;DHT22;4589;48.690;8.952;2023-07-22T23:21:10;15.40;99.90
9107;DHT22;4589;48.690;8.952;2023-07-22T23:28:29;15.20;99.90
9107;DHT22;4589;48.690;8.952;2023-07-22T23:30:55;15.10;99.90
9107;DHT22;4589;48.690;8.952;2023-07-22T23:33:21;15.20;99.90
9107;DHT22;4589;48.690;8.952;2023-07-22T23:36:02;15.10;99.90
9107;DHT22;4589;48.690;8.952;2023-07-22T23:38:29;15.10;99.90
9107;DHT22;4589;48.690;8.952;2023-07-22T23:40:55;15.10;99.90
9107;DHT22;4589;48.690;8.952;2023-07-22T23:43:21;15.10;99.90
9107;DHT22;4589;48.690;8.952;2023-07-22T23:57:59;15.30;99.90
